sensor_id;sensor_type;location;lat;lon;timestamp;P1;durP1;ratioP1;P2;durP2;ratioP2
59263;SDS011;45030;42.720;23.344;2023-04-29T00:00:42;9.38;;;5.63;;
59263;SDS011;45030;42.720;23.344;2023-04-29T00:03:08;11.20;;;6.10;;
59263;SDS011;45030;42.720;23.344;2023-04-29T00:05:33;8.75;;;5.82;;
59263;SDS011;45030;42.720;23.344;2023-04-29T00:07:59;10.48;;;6.05;;
59263;SDS011;45030;42.720;23.344;2023-04-29T00:10:24;9.70;;;5.63;;
59263;SDS011;45030;42.720;23.344;2023-04-29T00:12:50;9.27;;;6.07;;
59263;SDS011;45030;42.720;23.344;2023-04-29T00:15:16;14.70;;;6.88;;
59263;SDS011;45030;42.720;23.344;2023-04-29T00:17:41;12.23;;;7.07;;
59263;SDS011;45030;42.720;23.344;2023-04-29T00:20:06;11.60;;;7.32;;
59263;SDS011;45030;42.720;23.344;2023-04-29T00:22:32;10.48;;;7.13;;
59263;SDS011;45030;42.720;23.344;2023-04-29T00:24:57;15.15;;;7.43;;
59263;SDS011;45030;42.720;23.344;2023-04-29T00:27:22;16.58;;;9.38;;
59263;SDS011;45030;42.720;23.344;2023-04-29T00:29:47;11.75;;;6.60;;
59263;SDS011;45030;42.720;23.344;2023-04-29T00:32:13;12.93;;;7.85;;
59263;SDS011;45030;42.720;23.344;2023-04-29T00:34:38;11.40;;;6.65;;
59263;SDS011;45030;42.720;23.344;2023-04-29T00:37:03;12.63;;;7.18;;
59263;SDS011;45030;42.720;23.344;2023-04-29T00:39:28;9.50;;;5.75;;
59263;SDS011;45030;42.720;23.344;2023-04-29T00:41:54;7.03;;;5.25;;
59263;SDS011;45030;42.720;23.344;2023-04-29T00:44:19;12.02;;;6.28;;
59263;SDS011;45030;42.720;23.344;2023-04-29T00:46:44;10.73;;;5.85;;
59263;SDS011;45030;42.720;23.344;2023-04-29T00:49:10;10.20;;;5.57;;
59263;SDS011;45030;42.720;23.344;2023-04-29T00:51:37;13.43;;;7.05;;
59263;SDS011;45030;42.720;23.344;2023-04-29T00:54:04;12.95;;;7.63;;
59263;SDS011;45030;42.720;23.344;2023-04-29T00:56:31;9.68;;;6.75;;
59263;SDS011;45030;42.720;23.344;2023-04-29T00:58:57;10.85;;;6.85;;
59263;SDS011;45030;42.720;23.344;2023-04-29T01:01:23;14.00;;;6.50;;
59263;SDS011;45030;42.720;23.344;2023-04-29T01:03:49;10.38;;;7.00;;
59263;SDS011;45030;42.720;23.344;2023-04-29T01:11:14;9.60;;;6.00;;
59263;SDS011;45030;42.720;23.344;2023-04-29T01:13:42;12.48;;;6.05;;
59263;SDS011;45030;42.720;23.344;2023-04-29T01:16:10;10.07;;;6.78;;
59263;SDS011;45030;42.720;23.344;2023-04-29T01:21:02;11.10;;;7.25;;
59263;SDS011;45030;42.720;23.344;2023-04-29T01:23:27;13.27;;;7.72;;
59263;SDS011;45030;42.720;23.344;2023-04-29T01:25:53;12.30;;;8.07;;
59263;SDS011;45030;42.720;23.344;2023-04-29T01:28:42;14.65;;;8.38;;
59263;SDS011;45030;42.720;23.344;2023-04-29T01:39:19;16.00;;;10.63;;
59263;SDS011;45030;42.720;23.344;2023-04-29T01:44:26;15.35;;;10.50;;
59263;SDS011;45030;42.720;23.344;2023-04-29T01:46:53;10.95;;;8.48;;
59263;SDS011;45030;42.720;23.344;2023-04-29T01:49:19;14.57;;;9.18;;
59263;SDS011;45030;42.720;23.344;2023-04-29T01:51:44;13.00;;;9.40;;
59263;SDS011;45030;42.720;23.344;2023-04-29T01:54:09;17.67;;;11.05;;
59263;SDS011;45030;42.720;23.344;2023-04-29T01:56:35;18.17;;;12.38;;
59263;SDS011;45030;42.720;23.344;2023-04-29T01:59:00;18.80;;;13.05;;
59263;SDS011;45030;42.720;23.344;2023-04-29T02:01:25;17.77;;;12.73;;
59263;SDS011;45030;42.720;23.344;2023-04-29T02:03:51;17.95;;;12.45;;
59263;SDS011;45030;42.720;23.344;2023-04-29T02:06:16;19.48;;;12.15;;
59263;SDS011;45030;42.720;23.344;2023-04-29T02:08:41;16.83;;;13.48;;
59263;SDS011;45030;42.720;23.344;2023-04-29T02:11:06;12.25;;;9.20;;
59263;SDS011;45030;42.720;23.344;2023-04-29T02:13:32;11.73;;;8.25;;
59263;SDS011;45030;42.720;23.344;2023-04-29T02:15:57;9.82;;;7.32;;
59263;SDS011;45030;42.720;23.344;2023-04-29T02:18:30;10.10;;;7.00;;
59263;SDS011;45030;42.720;23.344;2023-04-29T02:20:59;7.72;;;6.20;;
59263;SDS011;45030;42.720;23.344;2023-04-29T02:23:25;9.52;;;6.47;;
59263;SDS011;45030;42.720;23.344;2023-04-29T02:25:51;8.88;;;5.55;;
59263;SDS011;45030;42.720;23.344;2023-04-29T02:28:16;9.60;;;5.90;;
59263;SDS011;45030;42.720;23.344;2023-04-29T02:30:41;9.68;;;6.65;;
59263;SDS011;45030;42.720;23.344;2023-04-29T02:33:07;9.88;;;6.03;;
59263;SDS011;45030;42.720;23.344;2023-04-29T02:35:32;8.50;;;6.07;;
59263;SDS011;45030;42.720;23.344;2023-04-29T02:37:57;7.72;;;5.90;;
59263;SDS011;45030;42.720;23.344;2023-04-29T02:40:22;11.15;;;5.57;;
59263;SDS011;45030;42.720;23.344;2023-04-29T02:42:49;9.68;;;5.93;;
59263;SDS011;45030;42.720;23.344;2023-04-29T02:45:15;10.95;;;6.35;;
59263;SDS011;45030;42.720;23.344;2023-04-29T02:47:40;8.73;;;5.82;;
59263;SDS011;45030;42.720;23.344;2023-04-29T02:50:05;9.05;;;6.30;;
59263;SDS011;45030;42.720;23.344;2023-04-29T02:52:31;10.48;;;5.93;;
59263;SDS011;45030;42.720;23.344;2023-04-29T02:54:56;9.60;;;6.15;;
59263;SDS011;45030;42.720;23.344;2023-04-29T02:57:21;9.05;;;6.07;;
59263;SDS011;45030;42.720;23.344;2023-04-29T02:59:47;10.70;;;7.20;;
59263;SDS011;45030;42.720;23.344;2023-04-29T03:02:12;12.20;;;8.40;;
59263;SDS011;45030;42.720;23.344;2023-04-29T03:04:37;11.25;;;7.80;;
59263;SDS011;45030;42.720;23.344;2023-04-29T03:07:04;9.50;;;6.05;;
59263;SDS011;45030;42.720;23.344;2023-04-29T03:09:30;10.32;;;6.15;;
59263;SDS011;45030;42.720;23.344;2023-04-29T03:11:55;12.13;;;5.63;;
59263;SDS011;45030;42.720;23.344;2023-04-29T03:14:21;11.05;;;6.35;;
59263;SDS011;45030;42.720;23.344;2023-04-29T03:16:46;9.32;;;6.25;;
59263;SDS011;45030;42.720;23.344;2023-04-29T03:19:11;12.60;;;6.82;;
59263;SDS011;45030;42.720;23.344;2023-04-29T03:21:37;9.93;;;6.47;;
59263;SDS011;45030;42.720;23.344;2023-04-29T03:24:02;10.93;;;6.75;;
59263;SDS011;45030;42.720;23.344;2023-04-29T03:26:27;15.43;;;10.38;;
59263;SDS011;45030;42.720;23.344;2023-04-29T03:28:52;19.92;;;12.52;;
59263;SDS011;45030;42.720;23.344;2023-04-29T03:31:18;12.30;;;9.20;;
59263;SDS011;45030;42.720;23.344;2023-04-29T03:33:45;12.43;;;8.32;;
59263;SDS011;45030;42.720;23.344;2023-04-29T03:36:10;14.38;;;8.65;;
59263;SDS011;45030;42.720;23.344;2023-04-29T03:38:35;12.48;;;8.43;;
59263;SDS011;45030;42.720;23.344;2023-04-29T03:41:00;16.40;;;9.98;;
59263;SDS011;45030;42.720;23.344;2023-04-29T03:43:26;18.33;;;9.95;;
59263;SDS011;45030;42.720;23.344;2023-04-29T03:45:51;17.67;;;9.32;;
59263;SDS011;45030;42.720;23.344;2023-04-29T03:48:17;12.88;;;8.85;;
59263;SDS011;45030;42.720;23.344;2023-04-29T03:50:42;14.85;;;7.72;;
59263;SDS011;45030;42.720;23.344;2023-04-29T03:53:07;11.70;;;7.25;;
59263;SDS011;45030;42.720;23.344;2023-04-29T03:55:33;13.35;;;7.25;;
59263;SDS011;45030;42.720;23.344;2023-04-29T03:57:58;9.57;;;6.68;;
59263;SDS011;45030;42.720;23.344;2023-04-29T04:00:23;12.32;;;7.55;;
59263;SDS011;45030;42.720;23.344;2023-04-29T04:02:50;15.10;;;7.68;;
59263;SDS011;45030;42.720;23.344;2023-04-29T04:05:15;11.13;;;7.32;;
59263;SDS011;45030;42.720;23.344;2023-04-29T04:07:43;9.77;;;7.05;;
59263;SDS011;45030;42.720;23.344;2023-04-29T04:10:08;17.58;;;11.43;;
59263;SDS011;45030;42.720;23.344;2023-04-29T04:12:33;18.08;;;12.02;;
59263;SDS011;45030;42.720;23.344;2023-04-29T04:14:59;40.88;;;21.40;;
59263;SDS011;45030;42.720;23.344;2023-04-29T04:17:24;38.70;;;19.83;;
59263;SDS011;45030;42.720;23.344;2023-04-29T04:19:49;37.85;;;19.10;;
59263;SDS011;45030;42.720;23.344;2023-04-29T04:22:15;29.90;;;16.55;;
59263;SDS011;45030;42.720;23.344;2023-04-29T04:24:41;28.98;;;15.80;;
59263;SDS011;45030;42.720;23.344;2023-04-29T04:27:06;25.95;;;13.93;;
59263;SDS011;45030;42.720;23.344;2023-04-29T04:29:31;19.75;;;12.35;;
59263;SDS011;45030;42.720;23.344;2023-04-29T04:31:56;19.80;;;13.32;;
59263;SDS011;45030;42.720;23.344;2023-04-29T04:34:22;24.33;;;12.63;;
59263;SDS011;45030;42.720;23.344;2023-04-29T04:36:47;18.23;;;8.48;;
59263;SDS011;45030;42.720;23.344;2023-04-29T04:39:12;17.77;;;8.60;;
59263;SDS011;45030;42.720;23.344;2023-04-29T04:41:37;20.42;;;10.35;;
59263;SDS011;45030;42.720;23.344;2023-04-29T04:44:03;14.52;;;7.32;;
59263;SDS011;45030;42.720;23.344;2023-04-29T04:46:28;11.50;;;6.60;;
59263;SDS011;45030;42.720;23.344;2023-04-29T04:48:53;11.30;;;6.10;;
59263;SDS011;45030;42.720;23.344;2023-04-29T04:51:19;14.93;;;7.30;;
59263;SDS011;45030;42.720;23.344;2023-04-29T04:53:45;10.27;;;6.40;;
59263;SDS011;45030;42.720;23.344;2023-04-29T04:56:10;10.77;;;7.13;;
59263;SDS011;45030;42.720;23.344;2023-04-29T04:58:35;13.13;;;6.45;;
59263;SDS011;45030;42.720;23.344;2023-04-29T05:01:01;12.07;;;7.30;;
59263;SDS011;45030;42.720;23.344;2023-04-29T05:03:26;11.32;;;6.43;;
59263;SDS011;45030;42.720;23.344;2023-04-29T05:05:55;12.18;;;6.95;;
59263;SDS011;45030;42.720;23.344;2023-04-29T05:08:21;21.73;;;12.45;;
59263;SDS011;45030;42.720;23.344;2023-04-29T05:10:46;20.02;;;10.63;;
59263;SDS011;45030;42.720;23.344;2023-04-29T05:13:11;15.55;;;8.60;;
59263;SDS011;45030;42.720;23.344;2023-04-29T05:15:37;19.30;;;9.13;;
59263;SDS011;45030;42.720;23.344;2023-04-29T05:18:02;13.15;;;8.02;;
59263;SDS011;45030;42.720;23.344;2023-04-29T05:20:27;14.10;;;7.30;;
59263;SDS011;45030;42.720;23.344;2023-04-29T05:22:52;11.68;;;7.82;;
59263;SDS011;45030;42.720;23.344;2023-04-29T05:25:18;13.13;;;7.05;;
59263;SDS011;45030;42.720;23.344;2023-04-29T05:27:43;13.35;;;5.80;;
59263;SDS011;45030;42.720;23.344;2023-04-29T05:30:08;10.95;;;5.57;;
59263;SDS011;45030;42.720;23.344;2023-04-29T05:32:34;11.15;;;6.85;;
59263;SDS011;45030;42.720;23.344;2023-04-29T05:34:59;7.80;;;5.50;;
59263;SDS011;45030;42.720;23.344;2023-04-29T05:37:25;8.20;;;5.75;;
59263;SDS011;45030;42.720;23.344;2023-04-29T05:39:54;10.07;;;5.20;;
59263;SDS011;45030;42.720;23.344;2023-04-29T05:42:20;11.27;;;5.35;;
59263;SDS011;45030;42.720;23.344;2023-04-29T05:44:45;11.35;;;6.38;;
59263;SDS011;45030;42.720;23.344;2023-04-29T05:47:10;9.40;;;5.78;;
59263;SDS011;45030;42.720;23.344;2023-04-29T05:49:36;7.47;;;4.97;;
59263;SDS011;45030;42.720;23.344;2023-04-29T05:52:01;8.25;;;6.07;;
59263;SDS011;45030;42.720;23.344;2023-04-29T05:54:30;11.32;;;6.55;;
59263;SDS011;45030;42.720;23.344;2023-04-29T05:56:55;10.63;;;7.07;;
59263;SDS011;45030;42.720;23.344;2023-04-29T05:59:21;11.15;;;6.15;;
59263;SDS011;45030;42.720;23.344;2023-04-29T06:01:46;14.55;;;7.10;;
59263;SDS011;45030;42.720;23.344;2023-04-29T06:04:11;15.50;;;6.63;;
59263;SDS011;45030;42.720;23.344;2023-04-29T06:06:36;12.68;;;6.50;;
59263;SDS011;45030;42.720;23.344;2023-04-29T06:09:02;10.10;;;5.35;;
59263;SDS011;45030;42.720;23.344;2023-04-29T06:11:28;13.10;;;6.40;;
59263;SDS011;45030;42.720;23.344;2023-04-29T06:13:53;11.43;;;5.95;;
59263;SDS011;45030;42.720;23.344;2023-04-29T06:16:19;10.15;;;4.90;;
59263;SDS011;45030;42.720;23.344;2023-04-29T06:18:44;8.98;;;5.20;;
59263;SDS011;45030;42.720;23.344;2023-04-29T06:21:09;9.73;;;6.22;;
59263;SDS011;45030;42.720;23.344;2023-04-29T06:23:35;10.50;;;5.55;;
59263;SDS011;45030;42.720;23.344;2023-04-29T06:26:00;8.32;;;5.05;;
59263;SDS011;45030;42.720;23.344;2023-04-29T06:28:25;9.50;;;5.15;;
59263;SDS011;45030;42.720;23.344;2023-04-29T06:30:51;8.85;;;5.13;;
59263;SDS011;45030;42.720;23.344;2023-04-29T06:33:16;8.40;;;5.10;;
59263;SDS011;45030;42.720;23.344;2023-04-29T06:35:41;9.48;;;6.07;;
59263;SDS011;45030;42.720;23.344;2023-04-29T06:38:07;11.18;;;5.50;;
59263;SDS011;45030;42.720;23.344;2023-04-29T06:40:32;9.60;;;5.85;;
59263;SDS011;45030;42.720;23.344;2023-04-29T06:42:58;11.93;;;5.60;;
59263;SDS011;45030;42.720;23.344;2023-04-29T06:45:23;9.68;;;5.65;;
59263;SDS011;45030;42.720;23.344;2023-04-29T06:47:49;10.38;;;5.38;;
59263;SDS011;45030;42.720;23.344;2023-04-29T06:50:14;9.77;;;5.00;;
59263;SDS011;45030;42.720;23.344;2023-04-29T06:52:40;7.80;;;4.15;;
59263;SDS011;45030;42.720;23.344;2023-04-29T06:55:05;7.97;;;4.05;;
59263;SDS011;45030;42.720;23.344;2023-04-29T06:57:31;6.65;;;4.25;;
59263;SDS011;45030;42.720;23.344;2023-04-29T06:59:56;5.15;;;3.97;;
59263;SDS011;45030;42.720;23.344;2023-04-29T07:02:21;11.25;;;4.15;;
59263;SDS011;45030;42.720;23.344;2023-04-29T07:04:47;7.50;;;4.82;;
59263;SDS011;45030;42.720;23.344;2023-04-29T07:07:13;6.60;;;4.72;;
59263;SDS011;45030;42.720;23.344;2023-04-29T07:09:39;9.27;;;4.57;;
59263;SDS011;45030;42.720;23.344;2023-04-29T07:12:04;8.82;;;6.13;;
59263;SDS011;45030;42.720;23.344;2023-04-29T07:14:29;7.10;;;5.10;;
59263;SDS011;45030;42.720;23.344;2023-04-29T07:16:55;10.57;;;5.82;;
59263;SDS011;45030;42.720;23.344;2023-04-29T07:19:21;10.40;;;5.50;;
59263;SDS011;45030;42.720;23.344;2023-04-29T07:21:46;13.75;;;5.85;;
59263;SDS011;45030;42.720;23.344;2023-04-29T07:24:11;12.00;;;7.07;;
59263;SDS011;45030;42.720;23.344;2023-04-29T07:26:37;13.38;;;7.75;;
59263;SDS011;45030;42.720;23.344;2023-04-29T07:29:02;13.95;;;5.90;;
59263;SDS011;45030;42.720;23.344;2023-04-29T07:31:27;6.40;;;4.88;;
59263;SDS011;45030;42.720;23.344;2023-04-29T07:33:53;7.28;;;4.90;;
59263;SDS011;45030;42.720;23.344;2023-04-29T07:36:19;9.30;;;5.50;;
59263;SDS011;45030;42.720;23.344;2023-04-29T07:38:44;9.52;;;5.13;;
59263;SDS011;45030;42.720;23.344;2023-04-29T07:41:09;7.75;;;5.60;;
59263;SDS011;45030;42.720;23.344;2023-04-29T07:43:35;9.57;;;6.32;;
59263;SDS011;45030;42.720;23.344;2023-04-29T07:46:00;8.00;;;5.20;;
59263;SDS011;45030;42.720;23.344;2023-04-29T07:48:25;8.07;;;4.38;;
59263;SDS011;45030;42.720;23.344;2023-04-29T07:50:50;13.40;;;6.03;;
59263;SDS011;45030;42.720;23.344;2023-04-29T07:53:16;8.00;;;4.07;;
59263;SDS011;45030;42.720;23.344;2023-04-29T07:55:42;10.18;;;5.30;;
59263;SDS011;45030;42.720;23.344;2023-04-29T07:58:07;7.93;;;5.05;;
59263;SDS011;45030;42.720;23.344;2023-04-29T08:00:32;6.70;;;4.55;;
59263;SDS011;45030;42.720;23.344;2023-04-29T08:02:58;6.45;;;4.07;;
59263;SDS011;45030;42.720;23.344;2023-04-29T08:05:23;8.80;;;4.10;;
59263;SDS011;45030;42.720;23.344;2023-04-29T08:07:49;7.13;;;4.75;;
59263;SDS011;45030;42.720;23.344;2023-04-29T08:10:15;7.68;;;4.43;;
59263;SDS011;45030;42.720;23.344;2023-04-29T08:12:41;7.95;;;4.22;;
59263;SDS011;45030;42.720;23.344;2023-04-29T08:15:06;8.25;;;4.00;;
59263;SDS011;45030;42.720;23.344;2023-04-29T08:17:31;6.55;;;3.67;;
59263;SDS011;45030;42.720;23.344;2023-04-29T08:19:57;4.68;;;3.40;;
59263;SDS011;45030;42.720;23.344;2023-04-29T08:22:22;6.93;;;3.63;;
59263;SDS011;45030;42.720;23.344;2023-04-29T08:24:47;6.10;;;4.07;;
59263;SDS011;45030;42.720;23.344;2023-04-29T08:27:13;5.28;;;3.05;;
59263;SDS011;45030;42.720;23.344;2023-04-29T08:29:39;4.68;;;2.97;;
59263;SDS011;45030;42.720;23.344;2023-04-29T08:32:05;5.68;;;3.25;;
59263;SDS011;45030;42.720;23.344;2023-04-29T08:34:30;6.78;;;3.45;;
59263;SDS011;45030;42.720;23.344;2023-04-29T08:36:56;6.88;;;2.85;;
59263;SDS011;45030;42.720;23.344;2023-04-29T08:39:21;5.37;;;3.07;;
59263;SDS011;45030;42.720;23.344;2023-04-29T08:41:46;4.43;;;2.90;;
59263;SDS011;45030;42.720;23.344;2023-04-29T08:44:13;4.75;;;3.13;;
59263;SDS011;45030;42.720;23.344;2023-04-29T08:46:39;4.97;;;2.90;;
59263;SDS011;45030;42.720;23.344;2023-04-29T08:49:04;4.82;;;2.60;;
59263;SDS011;45030;42.720;23.344;2023-04-29T08:51:30;4.28;;;2.15;;
59263;SDS011;45030;42.720;23.344;2023-04-29T08:53:57;6.65;;;2.50;;
59263;SDS011;45030;42.720;23.344;2023-04-29T08:56:23;5.82;;;2.65;;
59263;SDS011;45030;42.720;23.344;2023-04-29T08:58:51;5.57;;;2.58;;
59263;SDS011;45030;42.720;23.344;2023-04-29T09:01:19;4.63;;;2.85;;
59263;SDS011;45030;42.720;23.344;2023-04-29T09:06:29;4.10;;;2.90;;
59263;SDS011;45030;42.720;23.344;2023-04-29T09:08:57;6.30;;;2.50;;
59263;SDS011;45030;42.720;23.344;2023-04-29T09:11:22;5.65;;;2.72;;
59263;SDS011;45030;42.720;23.344;2023-04-29T09:13:48;7.47;;;2.47;;
59263;SDS011;45030;42.720;23.344;2023-04-29T09:16:13;5.20;;;3.17;;
59263;SDS011;45030;42.720;23.344;2023-04-29T09:18:45;7.22;;;2.92;;
59263;SDS011;45030;42.720;23.344;2023-04-29T09:21:14;3.87;;;2.53;;
59263;SDS011;45030;42.720;23.344;2023-04-29T09:23:40;9.50;;;3.28;;
59263;SDS011;45030;42.720;23.344;2023-04-29T09:26:06;5.50;;;2.50;;
59263;SDS011;45030;42.720;23.344;2023-04-29T09:28:31;5.80;;;3.08;;
59263;SDS011;45030;42.720;23.344;2023-04-29T09:30:56;5.80;;;3.10;;
59263;SDS011;45030;42.720;23.344;2023-04-29T09:33:21;5.30;;;3.33;;
59263;SDS011;45030;42.720;23.344;2023-04-29T09:35:47;3.60;;;2.90;;
59263;SDS011;45030;42.720;23.344;2023-04-29T09:38:13;5.72;;;3.22;;
59263;SDS011;45030;42.720;23.344;2023-04-29T09:40:39;6.15;;;3.00;;
59263;SDS011;45030;42.720;23.344;2023-04-29T09:43:14;6.78;;;3.45;;
59263;SDS011;45030;42.720;23.344;2023-04-29T09:45:43;5.18;;;2.65;;
59263;SDS011;45030;42.720;23.344;2023-04-29T09:48:09;5.80;;;2.42;;
59263;SDS011;45030;42.720;23.344;2023-04-29T09:50:35;7.72;;;2.80;;
59263;SDS011;45030;42.720;23.344;2023-04-29T09:53:01;4.93;;;2.47;;
59263;SDS011;45030;42.720;23.344;2023-04-29T09:55:26;5.68;;;2.50;;
59263;SDS011;45030;42.720;23.344;2023-04-29T09:57:52;5.15;;;2.72;;
59263;SDS011;45030;42.720;23.344;2023-04-29T10:00:18;6.82;;;2.63;;
59263;SDS011;45030;42.720;23.344;2023-04-29T10:02:47;4.78;;;2.80;;
59263;SDS011;45030;42.720;23.344;2023-04-29T10:05:13;5.18;;;2.88;;
59263;SDS011;45030;42.720;23.344;2023-04-29T10:07:38;6.75;;;3.15;;
59263;SDS011;45030;42.720;23.344;2023-04-29T10:10:04;4.53;;;2.58;;
59263;SDS011;45030;42.720;23.344;2023-04-29T10:12:30;6.90;;;3.47;;
59263;SDS011;45030;42.720;23.344;2023-04-29T10:17:35;8.05;;;3.08;;
59263;SDS011;45030;42.720;23.344;2023-04-29T10:22:32;5.70;;;3.37;;
59263;SDS011;45030;42.720;23.344;2023-04-29T10:24:57;7.13;;;3.13;;
59263;SDS011;45030;42.720;23.344;2023-04-29T10:27:24;5.72;;;2.75;;
59263;SDS011;45030;42.720;23.344;2023-04-29T10:29:51;4.57;;;2.60;;
59263;SDS011;45030;42.720;23.344;2023-04-29T10:32:17;5.15;;;3.40;;
59263;SDS011;45030;42.720;23.344;2023-04-29T10:34:43;5.00;;;2.70;;
59263;SDS011;45030;42.720;23.344;2023-04-29T10:37:08;5.30;;;2.30;;
59263;SDS011;45030;42.720;23.344;2023-04-29T10:39:39;4.93;;;2.60;;
59263;SDS011;45030;42.720;23.344;2023-04-29T10:42:14;3.47;;;2.30;;
59263;SDS011;45030;42.720;23.344;2023-04-29T10:47:24;3.42;;;2.17;;
59263;SDS011;45030;42.720;23.344;2023-04-29T10:50:03;4.90;;;3.28;;
59263;SDS011;45030;42.720;23.344;2023-04-29T10:52:28;3.33;;;1.75;;
59263;SDS011;45030;42.720;23.344;2023-04-29T10:55:02;4.95;;;2.30;;
59263;SDS011;45030;42.720;23.344;2023-04-29T10:57:28;3.20;;;1.90;;
59263;SDS011;45030;42.720;23.344;2023-04-29T10:59:53;5.18;;;2.45;;
59263;SDS011;45030;42.720;23.344;2023-04-29T11:02:19;3.47;;;2.00;;
59263;SDS011;45030;42.720;23.344;2023-04-29T11:07:29;3.25;;;2.22;;
59263;SDS011;45030;42.720;23.344;2023-04-29T11:09:54;7.00;;;3.65;;
59263;SDS011;45030;42.720;23.344;2023-04-29T11:12:20;5.03;;;1.98;;
59263;SDS011;45030;42.720;23.344;2023-04-29T11:14:48;4.03;;;2.50;;
59263;SDS011;45030;42.720;23.344;2023-04-29T11:17:15;5.03;;;2.20;;
59263;SDS011;45030;42.720;23.344;2023-04-29T11:19:44;3.20;;;1.75;;
59263;SDS011;45030;42.720;23.344;2023-04-29T11:24:35;3.42;;;2.05;;
59263;SDS011;45030;42.720;23.344;2023-04-29T11:27:01;3.40;;;2.10;;
59263;SDS011;45030;42.720;23.344;2023-04-29T11:29:29;3.35;;;1.70;;
59263;SDS011;45030;42.720;23.344;2023-04-29T11:31:58;4.00;;;2.08;;
59263;SDS011;45030;42.720;23.344;2023-04-29T11:34:23;3.05;;;1.73;;
59263;SDS011;45030;42.720;23.344;2023-04-29T11:36:49;4.05;;;1.75;;
59263;SDS011;45030;42.720;23.344;2023-04-29T11:39:15;4.22;;;1.98;;
59263;SDS011;45030;42.720;23.344;2023-04-29T11:41:41;4.47;;;2.13;;
59263;SDS011;45030;42.720;23.344;2023-04-29T11:44:06;3.63;;;1.95;;
59263;SDS011;45030;42.720;23.344;2023-04-29T11:46:34;4.30;;;1.80;;
59263;SDS011;45030;42.720;23.344;2023-04-29T11:48:59;3.03;;;1.92;;
59263;SDS011;45030;42.720;23.344;2023-04-29T11:51:25;3.55;;;2.08;;
59263;SDS011;45030;42.720;23.344;2023-04-29T11:53:52;4.00;;;2.17;;
59263;SDS011;45030;42.720;23.344;2023-04-29T11:56:19;5.60;;;2.67;;
59263;SDS011;45030;42.720;23.344;2023-04-29T11:58:45;5.65;;;2.30;;
59263;SDS011;45030;42.720;23.344;2023-04-29T12:01:10;4.18;;;1.92;;
59263;SDS011;45030;42.720;23.344;2023-04-29T12:03:36;3.67;;;1.90;;
59263;SDS011;45030;42.720;23.344;2023-04-29T12:06:01;3.25;;;1.65;;
59263;SDS011;45030;42.720;23.344;2023-04-29T12:08:27;3.75;;;1.90;;
59263;SDS011;45030;42.720;23.344;2023-04-29T12:10:56;3.45;;;1.88;;
59263;SDS011;45030;42.720;23.344;2023-04-29T12:13:22;5.00;;;1.90;;
59263;SDS011;45030;42.720;23.344;2023-04-29T12:15:49;2.90;;;2.13;;
59263;SDS011;45030;42.720;23.344;2023-04-29T12:18:15;3.72;;;1.70;;
59263;SDS011;45030;42.720;23.344;2023-04-29T12:20:41;3.53;;;1.55;;
59263;SDS011;45030;42.720;23.344;2023-04-29T12:25:37;4.68;;;1.75;;
59263;SDS011;45030;42.720;23.344;2023-04-29T12:28:02;2.60;;;1.70;;
59263;SDS011;45030;42.720;23.344;2023-04-29T12:30:28;3.92;;;1.60;;
59263;SDS011;45030;42.720;23.344;2023-04-29T12:32:53;5.00;;;2.03;;
59263;SDS011;45030;42.720;23.344;2023-04-29T12:35:19;4.65;;;2.50;;
59263;SDS011;45030;42.720;23.344;2023-04-29T12:37:48;2.80;;;1.80;;
59263;SDS011;45030;42.720;23.344;2023-04-29T12:40:14;4.38;;;1.90;;
59263;SDS011;45030;42.720;23.344;2023-04-29T12:42:40;4.55;;;2.15;;
59263;SDS011;45030;42.720;23.344;2023-04-29T12:45:06;2.92;;;1.73;;
59263;SDS011;45030;42.720;23.344;2023-04-29T12:47:32;3.15;;;1.50;;
59263;SDS011;45030;42.720;23.344;2023-04-29T12:50:01;2.58;;;1.60;;
59263;SDS011;45030;42.720;23.344;2023-04-29T12:52:26;2.55;;;1.77;;
59263;SDS011;45030;42.720;23.344;2023-04-29T12:54:51;2.90;;;1.63;;
59263;SDS011;45030;42.720;23.344;2023-04-29T12:57:16;5.20;;;2.25;;
59263;SDS011;45030;42.720;23.344;2023-04-29T12:59:42;2.90;;;1.90;;
59263;SDS011;45030;42.720;23.344;2023-04-29T13:02:07;3.42;;;1.70;;
59263;SDS011;45030;42.720;23.344;2023-04-29T13:04:32;3.60;;;1.73;;
59263;SDS011;45030;42.720;23.344;2023-04-29T13:06:58;4.10;;;1.88;;
59263;SDS011;45030;42.720;23.344;2023-04-29T13:09:26;3.95;;;1.58;;
59263;SDS011;45030;42.720;23.344;2023-04-29T13:11:51;5.00;;;1.50;;
59263;SDS011;45030;42.720;23.344;2023-04-29T13:14:17;4.60;;;1.65;;
59263;SDS011;45030;42.720;23.344;2023-04-29T13:16:43;6.82;;;2.28;;
59263;SDS011;45030;42.720;23.344;2023-04-29T13:19:08;7.40;;;2.72;;
59263;SDS011;45030;42.720;23.344;2023-04-29T13:21:33;3.45;;;1.75;;
59263;SDS011;45030;42.720;23.344;2023-04-29T13:23:59;4.18;;;1.70;;
59263;SDS011;45030;42.720;23.344;2023-04-29T13:26:24;4.32;;;1.85;;
59263;SDS011;45030;42.720;23.344;2023-04-29T13:28:50;4.18;;;1.45;;
59263;SDS011;45030;42.720;23.344;2023-04-29T13:31:16;3.67;;;1.70;;
59263;SDS011;45030;42.720;23.344;2023-04-29T13:33:41;4.07;;;1.50;;
59263;SDS011;45030;42.720;23.344;2023-04-29T13:36:08;2.97;;;1.60;;
59263;SDS011;45030;42.720;23.344;2023-04-29T13:38:33;2.20;;;1.35;;
59263;SDS011;45030;42.720;23.344;2023-04-29T13:40:58;3.70;;;1.77;;
59263;SDS011;45030;42.720;23.344;2023-04-29T13:43:24;3.55;;;2.28;;
59263;SDS011;45030;42.720;23.344;2023-04-29T13:45:49;2.40;;;1.45;;
59263;SDS011;45030;42.720;23.344;2023-04-29T13:48:15;2.05;;;1.38;;
59263;SDS011;45030;42.720;23.344;2023-04-29T13:50:40;4.15;;;1.92;;
59263;SDS011;45030;42.720;23.344;2023-04-29T13:53:06;3.20;;;1.92;;
59263;SDS011;45030;42.720;23.344;2023-04-29T13:55:32;4.75;;;2.10;;
59263;SDS011;45030;42.720;23.344;2023-04-29T13:57:59;2.33;;;1.20;;
59263;SDS011;45030;42.720;23.344;2023-04-29T14:00:24;2.45;;;1.50;;
59263;SDS011;45030;42.720;23.344;2023-04-29T14:02:49;4.05;;;1.60;;
59263;SDS011;45030;42.720;23.344;2023-04-29T14:05:15;2.17;;;1.65;;
59263;SDS011;45030;42.720;23.344;2023-04-29T14:07:40;2.75;;;1.63;;
59263;SDS011;45030;42.720;23.344;2023-04-29T14:10:05;2.38;;;1.30;;
59263;SDS011;45030;42.720;23.344;2023-04-29T14:12:30;3.17;;;1.60;;
59263;SDS011;45030;42.720;23.344;2023-04-29T14:14:56;3.10;;;1.88;;
59263;SDS011;45030;42.720;23.344;2023-04-29T14:17:21;3.60;;;1.77;;
59263;SDS011;45030;42.720;23.344;2023-04-29T14:19:46;4.00;;;1.90;;
59263;SDS011;45030;42.720;23.344;2023-04-29T14:22:12;4.93;;;1.63;;
59263;SDS011;45030;42.720;23.344;2023-04-29T14:24:37;7.38;;;2.10;;
59263;SDS011;45030;42.720;23.344;2023-04-29T14:27:03;5.75;;;2.85;;
59263;SDS011;45030;42.720;23.344;2023-04-29T14:29:28;5.05;;;2.08;;
59263;SDS011;45030;42.720;23.344;2023-04-29T14:31:54;2.40;;;1.25;;
59263;SDS011;45030;42.720;23.344;2023-04-29T14:34:19;3.43;;;1.70;;
59263;SDS011;45030;42.720;23.344;2023-04-29T14:36:45;3.17;;;2.00;;
59263;SDS011;45030;42.720;23.344;2023-04-29T14:39:13;6.30;;;2.05;;
59263;SDS011;45030;42.720;23.344;2023-04-29T14:41:38;7.78;;;2.65;;
59263;SDS011;45030;42.720;23.344;2023-04-29T14:44:04;3.45;;;1.58;;
59263;SDS011;45030;42.720;23.344;2023-04-29T14:46:32;2.80;;;1.83;;
59263;SDS011;45030;42.720;23.344;2023-04-29T14:48:57;7.00;;;3.03;;
59263;SDS011;45030;42.720;23.344;2023-04-29T14:51:23;4.57;;;2.30;;
59263;SDS011;45030;42.720;23.344;2023-04-29T14:53:48;2.45;;;1.20;;
59263;SDS011;45030;42.720;23.344;2023-04-29T14:56:15;6.75;;;3.42;;